createdAt,value
2022-09-04T00:01:59.047Z,92.75
2022-09-04T00:04:35.566Z,93.03
2022-09-04T00:07:20.614Z,92.81
2022-09-04T00:10:11.579Z,93.44
2022-09-04T00:13:11.000Z,92.96
2022-09-04T00:16:10.867Z,92.90
2022-09-04T00:19:04.564Z,92.90
2022-09-04T00:22:14.233Z,92.56
2022-09-04T00:24:54.067Z,93.21
2022-09-04T00:27:29.745Z,93.78
2022-09-04T00:30:11.734Z,93.33
2022-09-04T00:33:17.276Z,93.28
2022-09-04T00:35:58.970Z,93.48
2022-09-04T00:38:54.064Z,93.39
2022-09-04T00:41:52.842Z,93.15
2022-09-04T00:44:35.993Z,93.25
2022-09-04T00:47:30.333Z,93.44
2022-09-04T00:50:16.782Z,92.91
2022-09-04T00:54:03.065Z,92.93
2022-09-04T00:56:56.309Z,92.57
2022-09-04T01:00:16.038Z,93.17
2022-09-04T01:03:31.259Z,92.60
2022-09-04T01:06:21.417Z,92.58
2022-09-04T01:09:27.065Z,93.10
2022-09-04T01:12:46.854Z,92.47
2022-09-04T01:15:55.808Z,92.38
2022-09-04T01:18:40.963Z,92.26
2022-09-04T01:21:33.910Z,92.14
2022-09-04T01:24:27.251Z,92.05
2022-09-04T01:27:24.388Z,91.92
2022-09-04T01:30:06.157Z,92.03
2022-09-04T01:33:12.264Z,92.04
2022-09-04T01:35:59.999Z,91.88
2022-09-04T01:38:34.646Z,91.61
2022-09-04T01:41:15.207Z,91.80
2022-09-04T01:43:43.889Z,91.86
2022-09-04T01:46:50.473Z,91.92
2022-09-04T01:49:45.757Z,91.90
2022-09-04T01:52:36.942Z,92.11
2022-09-04T01:55:11.517Z,92.60
2022-09-04T01:58:12.064Z,92.55
2022-09-04T02:01:50.121Z,92.45
2022-09-04T02:04:53.868Z,92.37
2022-09-04T02:07:32.482Z,92.18
2022-09-04T02:10:34.980Z,91.91
2022-09-04T02:13:29.639Z,91.81
2022-09-04T02:16:38.955Z,91.75
2022-09-04T02:19:28.716Z,91.31
2022-09-04T02:22:34.111Z,91.35
2022-09-04T02:25:02.720Z,91.26
2022-09-04T02:28:08.519Z,91.24
2022-09-04T02:30:56.808Z,91.14
2022-09-04T02:33:52.951Z,91.56
2022-09-04T02:36:35.590Z,91.03
2022-09-04T02:39:12.073Z,91.06
2022-09-04T02:42:18.384Z,90.96
2022-09-04T02:45:08.218Z,91.03
2022-09-04T02:47:53.655Z,91.16
2022-09-04T02:50:48.224Z,90.94
2022-09-04T02:54:09.083Z,90.96
2022-09-04T02:57:12.179Z,90.96
2022-09-04T03:00:18.360Z,91.32
2022-09-04T03:03:03.891Z,91.98
2022-09-04T03:05:42.411Z,91.91
2022-09-04T03:08:36.283Z,91.59
2022-09-04T03:11:23.641Z,91.64
2022-09-04T03:14:32.570Z,91.29
2022-09-04T03:17:12.275Z,90.85
2022-09-04T03:20:00.418Z,90.98
2022-09-04T03:22:43.597Z,91.58
2022-09-04T03:25:42.701Z,91.24
2022-09-04T03:28:27.513Z,91.13
2022-09-04T03:30:58.561Z,91.13
2022-09-04T03:33:44.122Z,91.28
2022-09-04T03:36:25.706Z,90.90
2022-09-04T03:39:23.503Z,90.81
2022-09-04T03:42:29.188Z,90.70
2022-09-04T03:45:48.113Z,90.62
2022-09-04T03:48:53.796Z,90.48
2022-09-04T03:51:49.664Z,90.54
2022-09-04T03:55:03.819Z,90.85
2022-09-04T03:57:55.379Z,90.53
2022-09-04T04:00:24.960Z,90.41
2022-09-04T04:03:29.288Z,90.22
2022-09-04T04:06:41.991Z,90.32
2022-09-04T04:09:19.352Z,90.43
2022-09-04T04:12:07.257Z,90.34
2022-09-04T04:14:52.167Z,90.74
2022-09-04T04:17:26.688Z,91.00
2022-09-04T04:20:22.364Z,90.79
2022-09-04T04:23:09.560Z,91.27
2022-09-04T04:25:52.305Z,91.33
2022-09-04T04:29:00.074Z,91.01
2022-09-04T04:32:29.194Z,90.45
2022-09-04T04:35:18.481Z,89.97
2022-09-04T04:38:21.933Z,90.23
2022-09-04T04:41:25.277Z,90.57
2022-09-04T04:44:15.980Z,90.52
2022-09-04T04:47:18.295Z,90.29
2022-09-04T04:50:17.384Z,90.34
2022-09-04T04:53:25.477Z,89.91
2022-09-04T04:56:15.698Z,89.15
2022-09-04T04:59:20.891Z,88.61
2022-09-04T05:02:24.878Z,88.03
2022-09-04T05:05:54.357Z,87.97
2022-09-04T05:08:44.118Z,88.06
2022-09-04T05:11:35.896Z,88.03
2022-09-04T05:14:26.643Z,87.89
2022-09-04T05:17:04.908Z,87.58
2022-09-04T05:19:43.182Z,86.98
2022-09-04T05:22:42.822Z,86.66
2022-09-04T05:25:16.817Z,86.40
2022-09-04T05:28:05.472Z,85.55
2022-09-04T05:31:16.396Z,86.14
2022-09-04T05:34:05.693Z,84.27
2022-09-04T05:37:14.689Z,83.58
2022-09-04T05:39:58.314Z,83.44
2022-09-04T05:42:54.786Z,82.85
2022-09-04T05:45:48.199Z,82.47
2022-09-04T05:48:40.093Z,83.24
2022-09-04T05:52:05.664Z,81.72
2022-09-04T05:54:44.139Z,81.73
2022-09-04T05:57:49.254Z,81.57
2022-09-04T06:00:22.744Z,81.00
2022-09-04T06:03:19.438Z,79.90
2022-09-04T06:06:16.098Z,79.50
2022-09-04T06:09:16.718Z,80.05
2022-09-04T06:12:41.975Z,76.30
2022-09-04T06:15:42.704Z,75.30
2022-09-04T06:18:20.261Z,75.17
2022-09-04T06:21:07.002Z,72.27
2022-09-04T06:23:47.829Z,73.60
2022-09-04T06:26:34.311Z,74.10
2022-09-04T06:29:41.982Z,68.46
2022-09-04T06:32:34.795Z,70.82
2022-09-04T06:35:36.407Z,69.36
2022-09-04T06:38:24.546Z,68.85
2022-09-04T06:41:11.286Z,67.71
2022-09-04T06:43:48.808Z,67.06
2022-09-04T06:46:54.080Z,68.08
2022-09-04T06:49:35.770Z,67.36
2022-09-04T06:52:23.519Z,66.91
2022-09-04T06:55:20.226Z,66.66
2022-09-04T06:58:19.236Z,66.11
2022-09-04T07:00:59.070Z,66.21
2022-09-04T07:03:53.647Z,64.99
2022-09-04T07:07:03.157Z,65.67
2022-09-04T07:10:16.184Z,62.98
2022-09-04T07:13:15.381Z,59.82
2022-09-04T07:16:26.135Z,60.47
2022-09-04T07:19:21.929Z,60.21
2022-09-04T07:22:08.636Z,58.11
2022-09-04T07:25:08.869Z,61.53
2022-09-04T07:28:10.113Z,61.23
2022-09-04T07:31:10.628Z,61.32
2022-09-04T07:33:51.616Z,56.38
2022-09-04T07:36:45.156Z,53.12
2022-09-04T07:39:19.861Z,52.00
2022-09-04T07:42:16.203Z,51.62
2022-09-04T07:44:59.286Z,50.14
2022-09-04T07:47:50.134Z,49.01
2022-09-04T07:50:58.253Z,51.37
2022-09-04T07:53:58.898Z,51.98
2022-09-04T07:56:55.142Z,51.92
2022-09-04T08:00:03.092Z,51.23
2022-09-04T08:03:12.198Z,50.82
2022-09-04T08:05:57.660Z,50.61
2022-09-04T08:08:56.765Z,51.13
2022-09-04T08:11:42.672Z,50.54
2022-09-04T08:14:32.838Z,51.35
2022-09-04T08:17:21.042Z,50.83
2022-09-04T08:20:09.711Z,49.93
2022-09-04T08:22:47.377Z,49.32
2022-09-04T08:25:44.872Z,48.45
